sensor_id;sensor_type;location;lat;lon;timestamp;P1;durP1;ratioP1;P2;durP2;ratioP2
22614;SDS011;11474;50.790;0.298;2023-12-29T00:02:18;39.55;;;5.95;;
22614;SDS011;11474;50.790;0.298;2023-12-29T00:04:44;45.10;;;8.30;;
22614;SDS011;11474;50.790;0.298;2023-12-29T00:07:11;39.15;;;7.10;;
22614;SDS011;11474;50.790;0.298;2023-12-29T00:09:37;39.67;;;7.18;;
22614;SDS011;11474;50.790;0.298;2023-12-29T00:12:06;40.22;;;7.40;;
22614;SDS011;11474;50.790;0.298;2023-12-29T00:14:32;41.38;;;7.43;;
22614;SDS011;11474;50.790;0.298;2023-12-29T00:16:58;40.22;;;6.82;;
22614;SDS011;11474;50.790;0.298;2023-12-29T00:19:25;41.63;;;7.63;;
22614;SDS011;11474;50.790;0.298;2023-12-29T00:21:51;49.53;;;7.72;;
22614;SDS011;11474;50.790;0.298;2023-12-29T00:24:17;50.00;;;7.47;;
22614;SDS011;11474;50.790;0.298;2023-12-29T00:26:43;50.72;;;7.57;;
22614;SDS011;11474;50.790;0.298;2023-12-29T00:29:09;38.47;;;6.60;;
22614;SDS011;11474;50.790;0.298;2023-12-29T00:31:35;44.50;;;6.75;;
22614;SDS011;11474;50.790;0.298;2023-12-29T00:34:02;36.78;;;6.90;;
22614;SDS011;11474;50.790;0.298;2023-12-29T00:36:28;41.13;;;6.93;;
22614;SDS011;11474;50.790;0.298;2023-12-29T00:38:54;44.17;;;7.18;;
22614;SDS011;11474;50.790;0.298;2023-12-29T00:41:20;41.28;;;6.47;;
22614;SDS011;11474;50.790;0.298;2023-12-29T00:43:46;49.28;;;8.02;;
22614;SDS011;11474;50.790;0.298;2023-12-29T00:46:13;48.90;;;7.65;;
22614;SDS011;11474;50.790;0.298;2023-12-29T00:48:41;43.92;;;6.85;;
22614;SDS011;11474;50.790;0.298;2023-12-29T00:51:07;40.27;;;7.97;;
22614;SDS011;11474;50.790;0.298;2023-12-29T00:53:36;43.72;;;7.50;;
22614;SDS011;11474;50.790;0.298;2023-12-29T00:56:03;51.30;;;7.93;;
22614;SDS011;11474;50.790;0.298;2023-12-29T00:58:29;49.58;;;8.38;;
22614;SDS011;11474;50.790;0.298;2023-12-29T01:00:55;39.65;;;7.05;;
22614;SDS011;11474;50.790;0.298;2023-12-29T01:03:21;36.57;;;6.77;;
22614;SDS011;11474;50.790;0.298;2023-12-29T01:05:47;41.60;;;6.68;;
22614;SDS011;11474;50.790;0.298;2023-12-29T01:08:13;37.10;;;6.53;;
22614;SDS011;11474;50.790;0.298;2023-12-29T01:10:39;40.20;;;6.20;;
22614;SDS011;11474;50.790;0.298;2023-12-29T01:13:05;41.83;;;6.97;;
22614;SDS011;11474;50.790;0.298;2023-12-29T01:15:31;44.92;;;6.90;;
22614;SDS011;11474;50.790;0.298;2023-12-29T01:17:58;41.65;;;6.13;;
22614;SDS011;11474;50.790;0.298;2023-12-29T01:20:24;38.58;;;6.38;;
22614;SDS011;11474;50.790;0.298;2023-12-29T01:22:50;39.13;;;6.35;;
22614;SDS011;11474;50.790;0.298;2023-12-29T01:25:16;43.33;;;6.72;;
22614;SDS011;11474;50.790;0.298;2023-12-29T01:27:42;46.55;;;7.43;;
22614;SDS011;11474;50.790;0.298;2023-12-29T01:30:08;47.03;;;7.55;;
22614;SDS011;11474;50.790;0.298;2023-12-29T01:32:35;48.50;;;6.88;;
22614;SDS011;11474;50.790;0.298;2023-12-29T01:35:02;44.75;;;7.05;;
22614;SDS011;11474;50.790;0.298;2023-12-29T01:37:28;40.90;;;6.55;;
22614;SDS011;11474;50.790;0.298;2023-12-29T01:39:55;41.35;;;6.63;;
22614;SDS011;11474;50.790;0.298;2023-12-29T01:42:21;41.53;;;6.78;;
22614;SDS011;11474;50.790;0.298;2023-12-29T01:44:47;46.45;;;6.68;;
22614;SDS011;11474;50.790;0.298;2023-12-29T01:47:19;43.42;;;6.68;;
22614;SDS011;11474;50.790;0.298;2023-12-29T01:49:46;41.45;;;6.40;;
22614;SDS011;11474;50.790;0.298;2023-12-29T01:52:12;38.75;;;6.85;;
22614;SDS011;11474;50.790;0.298;2023-12-29T01:54:40;48.65;;;7.38;;
22614;SDS011;11474;50.790;0.298;2023-12-29T01:57:07;38.85;;;6.05;;
22614;SDS011;11474;50.790;0.298;2023-12-29T01:59:34;48.13;;;7.07;;
22614;SDS011;11474;50.790;0.298;2023-12-29T02:02:01;40.75;;;6.20;;
22614;SDS011;11474;50.790;0.298;2023-12-29T02:04:27;42.45;;;6.93;;
22614;SDS011;11474;50.790;0.298;2023-12-29T02:06:54;43.35;;;6.57;;
22614;SDS011;11474;50.790;0.298;2023-12-29T02:09:21;47.65;;;7.30;;
22614;SDS011;11474;50.790;0.298;2023-12-29T02:11:47;41.95;;;6.95;;
22614;SDS011;11474;50.790;0.298;2023-12-29T02:14:17;37.35;;;6.53;;
22614;SDS011;11474;50.790;0.298;2023-12-29T02:19:56;41.50;;;6.40;;
22614;SDS011;11474;50.790;0.298;2023-12-29T02:22:07;37.00;;;6.55;;
22614;SDS011;11474;50.790;0.298;2023-12-29T02:24:33;48.17;;;7.03;;
22614;SDS011;11474;50.790;0.298;2023-12-29T02:29:48;41.78;;;7.40;;
22614;SDS011;11474;50.790;0.298;2023-12-29T02:32:18;36.17;;;6.40;;
22614;SDS011;11474;50.790;0.298;2023-12-29T02:34:44;38.85;;;6.95;;
22614;SDS011;11474;50.790;0.298;2023-12-29T02:37:13;49.78;;;6.50;;
22614;SDS011;11474;50.790;0.298;2023-12-29T02:39:40;43.00;;;7.13;;
22614;SDS011;11474;50.790;0.298;2023-12-29T02:42:06;40.27;;;6.90;;
22614;SDS011;11474;50.790;0.298;2023-12-29T02:44:32;37.85;;;6.05;;
22614;SDS011;11474;50.790;0.298;2023-12-29T02:46:58;41.07;;;6.20;;
22614;SDS011;11474;50.790;0.298;2023-12-29T02:49:26;43.67;;;6.38;;
22614;SDS011;11474;50.790;0.298;2023-12-29T02:51:52;35.53;;;5.93;;
22614;SDS011;11474;50.790;0.298;2023-12-29T02:54:18;34.57;;;5.50;;
22614;SDS011;11474;50.790;0.298;2023-12-29T02:56:44;39.28;;;5.80;;
22614;SDS011;11474;50.790;0.298;2023-12-29T02:59:10;34.83;;;5.70;;
22614;SDS011;11474;50.790;0.298;2023-12-29T03:01:36;33.45;;;5.38;;
22614;SDS011;11474;50.790;0.298;2023-12-29T03:04:02;34.50;;;5.87;;
22614;SDS011;11474;50.790;0.298;2023-12-29T03:06:28;34.28;;;5.60;;
22614;SDS011;11474;50.790;0.298;2023-12-29T03:08:54;34.85;;;5.72;;
22614;SDS011;11474;50.790;0.298;2023-12-29T03:11:20;31.48;;;5.43;;
22614;SDS011;11474;50.790;0.298;2023-12-29T03:13:47;33.90;;;5.35;;
22614;SDS011;11474;50.790;0.298;2023-12-29T03:16:13;32.25;;;5.13;;
22614;SDS011;11474;50.790;0.298;2023-12-29T03:18:39;36.03;;;5.63;;
22614;SDS011;11474;50.790;0.298;2023-12-29T03:21:06;29.13;;;5.30;;
22614;SDS011;11474;50.790;0.298;2023-12-29T03:23:33;30.95;;;5.93;;
22614;SDS011;11474;50.790;0.298;2023-12-29T03:25:59;43.05;;;6.18;;
22614;SDS011;11474;50.790;0.298;2023-12-29T03:28:25;35.22;;;5.78;;
22614;SDS011;11474;50.790;0.298;2023-12-29T03:30:51;32.70;;;5.35;;
22614;SDS011;11474;50.790;0.298;2023-12-29T03:33:17;30.13;;;5.28;;
22614;SDS011;11474;50.790;0.298;2023-12-29T03:35:44;33.80;;;5.65;;
22614;SDS011;11474;50.790;0.298;2023-12-29T03:38:10;30.83;;;5.28;;
22614;SDS011;11474;50.790;0.298;2023-12-29T03:40:36;33.85;;;6.15;;
22614;SDS011;11474;50.790;0.298;2023-12-29T03:43:02;31.17;;;5.65;;
22614;SDS011;11474;50.790;0.298;2023-12-29T03:45:28;38.85;;;5.88;;
22614;SDS011;11474;50.790;0.298;2023-12-29T03:47:54;30.48;;;4.88;;
22614;SDS011;11474;50.790;0.298;2023-12-29T03:50:20;38.08;;;6.10;;
22614;SDS011;11474;50.790;0.298;2023-12-29T03:52:46;32.50;;;4.65;;
22614;SDS011;11474;50.790;0.298;2023-12-29T03:55:12;28.95;;;5.25;;
22614;SDS011;11474;50.790;0.298;2023-12-29T03:57:39;35.65;;;5.22;;
22614;SDS011;11474;50.790;0.298;2023-12-29T04:00:05;34.67;;;5.22;;
22614;SDS011;11474;50.790;0.298;2023-12-29T04:02:32;36.13;;;6.15;;
22614;SDS011;11474;50.790;0.298;2023-12-29T04:04:58;38.58;;;6.00;;
22614;SDS011;11474;50.790;0.298;2023-12-29T04:07:26;39.45;;;6.10;;
22614;SDS011;11474;50.790;0.298;2023-12-29T04:09:52;35.03;;;5.95;;
22614;SDS011;11474;50.790;0.298;2023-12-29T04:12:18;37.60;;;6.22;;
22614;SDS011;11474;50.790;0.298;2023-12-29T04:14:44;36.00;;;5.75;;
22614;SDS011;11474;50.790;0.298;2023-12-29T04:17:10;32.58;;;4.93;;
22614;SDS011;11474;50.790;0.298;2023-12-29T04:19:39;27.75;;;4.90;;
22614;SDS011;11474;50.790;0.298;2023-12-29T04:22:06;33.58;;;6.05;;
22614;SDS011;11474;50.790;0.298;2023-12-29T04:24:32;35.65;;;5.35;;
22614;SDS011;11474;50.790;0.298;2023-12-29T04:26:58;39.07;;;5.90;;
22614;SDS011;11474;50.790;0.298;2023-12-29T04:29:24;44.50;;;7.32;;
22614;SDS011;11474;50.790;0.298;2023-12-29T04:31:51;36.88;;;5.68;;
22614;SDS011;11474;50.790;0.298;2023-12-29T04:34:17;30.07;;;6.43;;
22614;SDS011;11474;50.790;0.298;2023-12-29T04:36:43;29.05;;;5.50;;
22614;SDS011;11474;50.790;0.298;2023-12-29T04:39:09;32.25;;;5.90;;
22614;SDS011;11474;50.790;0.298;2023-12-29T04:41:35;30.60;;;4.47;;
22614;SDS011;11474;50.790;0.298;2023-12-29T04:44:01;39.20;;;5.63;;
22614;SDS011;11474;50.790;0.298;2023-12-29T04:46:27;35.55;;;6.25;;
22614;SDS011;11474;50.790;0.298;2023-12-29T04:48:53;31.02;;;4.90;;
22614;SDS011;11474;50.790;0.298;2023-12-29T04:51:19;31.33;;;5.10;;
22614;SDS011;11474;50.790;0.298;2023-12-29T04:53:46;36.35;;;5.35;;
22614;SDS011;11474;50.790;0.298;2023-12-29T04:56:12;34.65;;;5.32;;
22614;SDS011;11474;50.790;0.298;2023-12-29T04:58:38;38.28;;;5.15;;
22614;SDS011;11474;50.790;0.298;2023-12-29T05:01:04;35.45;;;4.97;;
22614;SDS011;11474;50.790;0.298;2023-12-29T05:03:30;25.30;;;4.53;;
22614;SDS011;11474;50.790;0.298;2023-12-29T05:05:56;28.20;;;4.50;;
22614;SDS011;11474;50.790;0.298;2023-12-29T05:08:22;33.47;;;4.80;;
22614;SDS011;11474;50.790;0.298;2023-12-29T05:10:48;25.95;;;4.45;;
22614;SDS011;11474;50.790;0.298;2023-12-29T05:13:14;28.00;;;3.90;;
22614;SDS011;11474;50.790;0.298;2023-12-29T05:15:40;27.17;;;3.90;;
22614;SDS011;11474;50.790;0.298;2023-12-29T05:18:06;26.17;;;4.00;;
22614;SDS011;11474;50.790;0.298;2023-12-29T05:20:32;19.92;;;3.42;;
22614;SDS011;11474;50.790;0.298;2023-12-29T05:22:58;24.37;;;4.10;;
22614;SDS011;11474;50.790;0.298;2023-12-29T05:25:25;24.33;;;4.38;;
22614;SDS011;11474;50.790;0.298;2023-12-29T05:27:51;24.90;;;3.45;;
22614;SDS011;11474;50.790;0.298;2023-12-29T05:30:17;19.13;;;3.60;;
22614;SDS011;11474;50.790;0.298;2023-12-29T05:32:43;16.80;;;3.50;;
22614;SDS011;11474;50.790;0.298;2023-12-29T05:35:09;15.02;;;3.08;;
22614;SDS011;11474;50.790;0.298;2023-12-29T05:37:35;19.52;;;3.42;;
22614;SDS011;11474;50.790;0.298;2023-12-29T05:40:01;16.92;;;3.10;;
22614;SDS011;11474;50.790;0.298;2023-12-29T05:42:29;20.38;;;3.58;;
22614;SDS011;11474;50.790;0.298;2023-12-29T05:44:55;24.45;;;3.58;;
22614;SDS011;11474;50.790;0.298;2023-12-29T05:47:21;25.17;;;3.57;;
22614;SDS011;11474;50.790;0.298;2023-12-29T05:49:47;27.02;;;3.83;;
22614;SDS011;11474;50.790;0.298;2023-12-29T05:52:13;31.60;;;3.75;;
22614;SDS011;11474;50.790;0.298;2023-12-29T05:54:39;26.98;;;3.60;;
22614;SDS011;11474;50.790;0.298;2023-12-29T05:57:05;24.75;;;4.32;;
22614;SDS011;11474;50.790;0.298;2023-12-29T05:59:31;25.60;;;4.20;;
22614;SDS011;11474;50.790;0.298;2023-12-29T06:01:57;33.42;;;4.32;;
22614;SDS011;11474;50.790;0.298;2023-12-29T06:04:24;27.25;;;4.22;;
22614;SDS011;11474;50.790;0.298;2023-12-29T06:06:50;34.78;;;4.60;;
22614;SDS011;11474;50.790;0.298;2023-12-29T06:09:16;26.73;;;5.38;;
22614;SDS011;11474;50.790;0.298;2023-12-29T06:11:42;27.73;;;3.90;;
22614;SDS011;11474;50.790;0.298;2023-12-29T06:14:08;33.17;;;4.87;;
22614;SDS011;11474;50.790;0.298;2023-12-29T06:16:35;24.67;;;3.97;;
22614;SDS011;11474;50.790;0.298;2023-12-29T06:19:01;32.17;;;4.68;;
22614;SDS011;11474;50.790;0.298;2023-12-29T06:21:27;27.95;;;4.38;;
22614;SDS011;11474;50.790;0.298;2023-12-29T06:23:53;32.23;;;4.20;;
22614;SDS011;11474;50.790;0.298;2023-12-29T06:26:20;31.02;;;4.20;;
22614;SDS011;11474;50.790;0.298;2023-12-29T06:28:47;25.67;;;4.90;;
22614;SDS011;11474;50.790;0.298;2023-12-29T06:31:14;31.70;;;4.57;;
22614;SDS011;11474;50.790;0.298;2023-12-29T06:33:40;32.63;;;4.40;;
22614;SDS011;11474;50.790;0.298;2023-12-29T06:36:07;22.98;;;3.70;;
22614;SDS011;11474;50.790;0.298;2023-12-29T06:38:33;30.25;;;3.78;;
22614;SDS011;11474;50.790;0.298;2023-12-29T06:41:02;22.75;;;4.18;;
22614;SDS011;11474;50.790;0.298;2023-12-29T06:43:29;22.83;;;4.07;;
22614;SDS011;11474;50.790;0.298;2023-12-29T06:45:55;26.17;;;4.32;;
22614;SDS011;11474;50.790;0.298;2023-12-29T06:48:21;26.67;;;4.57;;
22614;SDS011;11474;50.790;0.298;2023-12-29T06:50:47;23.02;;;4.45;;
22614;SDS011;11474;50.790;0.298;2023-12-29T06:53:13;26.77;;;4.38;;
22614;SDS011;11474;50.790;0.298;2023-12-29T06:55:40;27.92;;;4.32;;
22614;SDS011;11474;50.790;0.298;2023-12-29T06:58:06;26.90;;;4.05;;
22614;SDS011;11474;50.790;0.298;2023-12-29T07:00:32;24.77;;;3.92;;
22614;SDS011;11474;50.790;0.298;2023-12-29T07:02:58;26.17;;;4.43;;
22614;SDS011;11474;50.790;0.298;2023-12-29T07:05:24;29.25;;;4.70;;
22614;SDS011;11474;50.790;0.298;2023-12-29T07:07:50;31.10;;;4.72;;
22614;SDS011;11474;50.790;0.298;2023-12-29T07:10:17;38.53;;;5.23;;
22614;SDS011;11474;50.790;0.298;2023-12-29T07:12:43;29.45;;;5.03;;
22614;SDS011;11474;50.790;0.298;2023-12-29T07:15:09;32.67;;;6.18;;
22614;SDS011;11474;50.790;0.298;2023-12-29T07:17:35;36.47;;;5.38;;
22614;SDS011;11474;50.790;0.298;2023-12-29T07:20:01;39.10;;;6.20;;
22614;SDS011;11474;50.790;0.298;2023-12-29T07:22:28;40.15;;;5.80;;
22614;SDS011;11474;50.790;0.298;2023-12-29T07:24:55;40.15;;;7.03;;
22614;SDS011;11474;50.790;0.298;2023-12-29T07:27:21;40.45;;;6.93;;
22614;SDS011;11474;50.790;0.298;2023-12-29T07:29:48;37.22;;;6.28;;
22614;SDS011;11474;50.790;0.298;2023-12-29T07:32:14;47.63;;;6.27;;
22614;SDS011;11474;50.790;0.298;2023-12-29T07:34:40;36.40;;;5.90;;
22614;SDS011;11474;50.790;0.298;2023-12-29T07:37:06;38.05;;;5.97;;
22614;SDS011;11474;50.790;0.298;2023-12-29T07:39:32;47.33;;;6.55;;
22614;SDS011;11474;50.790;0.298;2023-12-29T07:42:01;37.20;;;6.18;;
22614;SDS011;11474;50.790;0.298;2023-12-29T07:44:28;50.63;;;6.27;;
22614;SDS011;11474;50.790;0.298;2023-12-29T07:46:54;40.15;;;6.15;;
22614;SDS011;11474;50.790;0.298;2023-12-29T07:49:22;35.58;;;6.10;;
22614;SDS011;11474;50.790;0.298;2023-12-29T07:51:48;36.20;;;5.20;;
22614;SDS011;11474;50.790;0.298;2023-12-29T07:54:14;36.60;;;6.03;;
22614;SDS011;11474;50.790;0.298;2023-12-29T07:56:41;39.15;;;5.85;;
22614;SDS011;11474;50.790;0.298;2023-12-29T07:59:07;41.35;;;6.00;;
22614;SDS011;11474;50.790;0.298;2023-12-29T08:01:33;39.03;;;6.35;;
22614;SDS011;11474;50.790;0.298;2023-12-29T08:04:01;30.75;;;5.80;;
22614;SDS011;11474;50.790;0.298;2023-12-29T08:06:28;36.88;;;6.55;;
22614;SDS011;11474;50.790;0.298;2023-12-29T08:08:54;36.10;;;5.93;;
22614;SDS011;11474;50.790;0.298;2023-12-29T08:11:20;37.65;;;5.97;;
22614;SDS011;11474;50.790;0.298;2023-12-29T08:13:47;40.72;;;5.82;;
22614;SDS011;11474;50.790;0.298;2023-12-29T08:16:13;33.40;;;5.43;;
22614;SDS011;11474;50.790;0.298;2023-12-29T08:18:42;37.97;;;5.28;;
22614;SDS011;11474;50.790;0.298;2023-12-29T08:21:08;44.37;;;6.10;;
22614;SDS011;11474;50.790;0.298;2023-12-29T08:23:34;36.47;;;5.72;;
22614;SDS011;11474;50.790;0.298;2023-12-29T08:26:02;36.30;;;6.55;;
22614;SDS011;11474;50.790;0.298;2023-12-29T08:28:28;33.00;;;5.40;;
22614;SDS011;11474;50.790;0.298;2023-12-29T08:30:55;30.85;;;5.28;;
22614;SDS011;11474;50.790;0.298;2023-12-29T08:33:21;28.42;;;5.43;;
22614;SDS011;11474;50.790;0.298;2023-12-29T08:35:47;33.00;;;4.93;;
22614;SDS011;11474;50.790;0.298;2023-12-29T08:38:14;34.75;;;5.43;;
22614;SDS011;11474;50.790;0.298;2023-12-29T08:40:40;24.65;;;5.28;;
22614;SDS011;11474;50.790;0.298;2023-12-29T08:43:07;27.23;;;4.57;;
22614;SDS011;11474;50.790;0.298;2023-12-29T08:45:33;36.40;;;5.72;;
22614;SDS011;11474;50.790;0.298;2023-12-29T08:48:00;34.75;;;4.55;;
22614;SDS011;11474;50.790;0.298;2023-12-29T08:50:28;28.60;;;5.57;;
22614;SDS011;11474;50.790;0.298;2023-12-29T08:52:54;37.92;;;5.80;;
22614;SDS011;11474;50.790;0.298;2023-12-29T08:55:20;34.63;;;5.05;;
22614;SDS011;11474;50.790;0.298;2023-12-29T08:57:47;32.85;;;5.38;;
22614;SDS011;11474;50.790;0.298;2023-12-29T09:00:13;43.38;;;6.18;;
22614;SDS011;11474;50.790;0.298;2023-12-29T09:02:40;35.88;;;5.95;;
22614;SDS011;11474;50.790;0.298;2023-12-29T09:05:06;38.05;;;6.40;;
22614;SDS011;11474;50.790;0.298;2023-12-29T09:07:33;35.80;;;6.20;;
22614;SDS011;11474;50.790;0.298;2023-12-29T09:10:00;43.30;;;5.75;;
22614;SDS011;11474;50.790;0.298;2023-12-29T09:12:28;39.20;;;6.20;;
22614;SDS011;11474;50.790;0.298;2023-12-29T09:14:54;35.75;;;6.25;;
22614;SDS011;11474;50.790;0.298;2023-12-29T09:17:20;40.20;;;5.53;;
22614;SDS011;11474;50.790;0.298;2023-12-29T09:19:47;28.77;;;4.40;;
22614;SDS011;11474;50.790;0.298;2023-12-29T09:22:13;27.88;;;5.05;;
22614;SDS011;11474;50.790;0.298;2023-12-29T09:24:40;23.25;;;4.05;;
22614;SDS011;11474;50.790;0.298;2023-12-29T09:27:06;28.75;;;4.20;;
22614;SDS011;11474;50.790;0.298;2023-12-29T09:29:33;24.42;;;3.90;;
22614;SDS011;11474;50.790;0.298;2023-12-29T09:31:59;24.42;;;4.05;;
22614;SDS011;11474;50.790;0.298;2023-12-29T09:34:26;24.30;;;3.90;;
22614;SDS011;11474;50.790;0.298;2023-12-29T09:36:52;27.60;;;4.68;;
22614;SDS011;11474;50.790;0.298;2023-12-29T09:39:18;36.00;;;5.63;;
22614;SDS011;11474;50.790;0.298;2023-12-29T09:41:46;36.97;;;5.05;;
22614;SDS011;11474;50.790;0.298;2023-12-29T09:44:14;36.60;;;5.18;;
22614;SDS011;11474;50.790;0.298;2023-12-29T09:46:41;29.10;;;5.10;;
22614;SDS011;11474;50.790;0.298;2023-12-29T09:49:07;32.55;;;4.78;;
22614;SDS011;11474;50.790;0.298;2023-12-29T09:51:35;30.02;;;5.05;;
22614;SDS011;11474;50.790;0.298;2023-12-29T09:54:02;24.52;;;4.18;;
22614;SDS011;11474;50.790;0.298;2023-12-29T09:56:30;23.90;;;4.30;;
22614;SDS011;11474;50.790;0.298;2023-12-29T09:58:56;28.00;;;4.53;;
22614;SDS011;11474;50.790;0.298;2023-12-29T10:01:23;18.63;;;3.87;;
22614;SDS011;11474;50.790;0.298;2023-12-29T10:03:53;21.85;;;3.22;;
22614;SDS011;11474;50.790;0.298;2023-12-29T10:06:20;18.83;;;3.35;;
22614;SDS011;11474;50.790;0.298;2023-12-29T10:08:46;23.17;;;3.60;;
22614;SDS011;11474;50.790;0.298;2023-12-29T10:11:13;31.25;;;4.40;;
22614;SDS011;11474;50.790;0.298;2023-12-29T10:13:41;32.15;;;4.57;;
22614;SDS011;11474;50.790;0.298;2023-12-29T10:16:12;28.58;;;4.05;;
22614;SDS011;11474;50.790;0.298;2023-12-29T10:18:45;28.33;;;4.13;;
22614;SDS011;11474;50.790;0.298;2023-12-29T10:21:27;36.85;;;5.07;;
22614;SDS011;11474;50.790;0.298;2023-12-29T10:24:16;29.80;;;4.57;;
22614;SDS011;11474;50.790;0.298;2023-12-29T10:26:43;30.02;;;4.78;;
22614;SDS011;11474;50.790;0.298;2023-12-29T10:29:11;24.60;;;3.75;;
22614;SDS011;11474;50.790;0.298;2023-12-29T10:31:38;26.63;;;4.13;;
22614;SDS011;11474;50.790;0.298;2023-12-29T10:34:20;25.38;;;4.10;;
22614;SDS011;11474;50.790;0.298;2023-12-29T10:36:53;28.15;;;4.18;;
22614;SDS011;11474;50.790;0.298;2023-12-29T10:39:20;25.20;;;3.53;;
22614;SDS011;11474;50.790;0.298;2023-12-29T10:41:46;29.17;;;4.18;;
22614;SDS011;11474;50.790;0.298;2023-12-29T10:44:12;26.85;;;4.28;;
22614;SDS011;11474;50.790;0.298;2023-12-29T10:46:38;28.88;;;4.45;;
22614;SDS011;11474;50.790;0.298;2023-12-29T10:49:11;33.50;;;4.97;;
22614;SDS011;11474;50.790;0.298;2023-12-29T10:51:38;32.90;;;4.75;;
22614;SDS011;11474;50.790;0.298;2023-12-29T10:54:04;28.25;;;4.63;;
22614;SDS011;11474;50.790;0.298;2023-12-29T10:56:33;33.03;;;5.32;;
22614;SDS011;11474;50.790;0.298;2023-12-29T10:59:00;36.08;;;5.43;;
22614;SDS011;11474;50.790;0.298;2023-12-29T11:01:28;30.33;;;4.78;;
22614;SDS011;11474;50.790;0.298;2023-12-29T11:04:01;30.23;;;4.93;;
22614;SDS011;11474;50.790;0.298;2023-12-29T11:06:28;30.83;;;4.43;;
22614;SDS011;11474;50.790;0.298;2023-12-29T11:08:55;24.88;;;4.13;;
22614;SDS011;11474;50.790;0.298;2023-12-29T11:11:22;23.80;;;5.07;;
22614;SDS011;11474;50.790;0.298;2023-12-29T11:13:49;24.27;;;3.90;;
22614;SDS011;11474;50.790;0.298;2023-12-29T11:16:16;22.60;;;4.20;;
22614;SDS011;11474;50.790;0.298;2023-12-29T11:18:46;20.77;;;3.90;;
22614;SDS011;11474;50.790;0.298;2023-12-29T11:21:13;24.10;;;3.88;;
22614;SDS011;11474;50.790;0.298;2023-12-29T11:23:39;25.73;;;4.13;;
22614;SDS011;11474;50.790;0.298;2023-12-29T11:26:05;25.15;;;3.85;;
22614;SDS011;11474;50.790;0.298;2023-12-29T11:28:32;30.67;;;4.47;;
22614;SDS011;11474;50.790;0.298;2023-12-29T11:31:02;29.17;;;4.25;;
22614;SDS011;11474;50.790;0.298;2023-12-29T11:33:31;29.08;;;4.30;;
22614;SDS011;11474;50.790;0.298;2023-12-29T11:38:49;32.05;;;4.50;;
22614;SDS011;11474;50.790;0.298;2023-12-29T11:42:02;30.88;;;4.78;;
22614;SDS011;11474;50.790;0.298;2023-12-29T11:44:08;26.92;;;4.93;;
22614;SDS011;11474;50.790;0.298;2023-12-29T11:46:34;36.10;;;5.28;;
22614;SDS011;11474;50.790;0.298;2023-12-29T11:49:01;30.65;;;4.53;;
22614;SDS011;11474;50.790;0.298;2023-12-29T11:51:41;31.75;;;4.88;;
22614;SDS011;11474;50.790;0.298;2023-12-29T11:54:10;28.60;;;4.82;;
22614;SDS011;11474;50.790;0.298;2023-12-29T11:56:47;28.77;;;5.25;;
22614;SDS011;11474;50.790;0.298;2023-12-29T11:59:16;26.38;;;5.10;;
22614;SDS011;11474;50.790;0.298;2023-12-29T12:01:45;26.48;;;4.72;;
22614;SDS011;11474;50.790;0.298;2023-12-29T12:06:56;37.50;;;5.30;;
22614;SDS011;11474;50.790;0.298;2023-12-29T12:09:23;30.25;;;5.63;;
22614;SDS011;11474;50.790;0.298;2023-12-29T12:11:51;28.70;;;5.18;;
22614;SDS011;11474;50.790;0.298;2023-12-29T12:17:02;39.60;;;6.60;;
22614;SDS011;11474;50.790;0.298;2023-12-29T12:19:29;41.88;;;6.07;;
22614;SDS011;11474;50.790;0.298;2023-12-29T12:22:00;37.88;;;5.88;;
22614;SDS011;11474;50.790;0.298;2023-12-29T12:24:27;28.02;;;4.85;;
22614;SDS011;11474;50.790;0.298;2023-12-29T12:26:54;33.47;;;5.13;;
22614;SDS011;11474;50.790;0.298;2023-12-29T12:29:20;37.72;;;6.50;;
22614;SDS011;11474;50.790;0.298;2023-12-29T12:31:56;32.15;;;5.38;;
22614;SDS011;11474;50.790;0.298;2023-12-29T12:34:23;28.85;;;5.60;;
22614;SDS011;11474;50.790;0.298;2023-12-29T12:36:52;37.78;;;6.13;;
22614;SDS011;11474;50.790;0.298;2023-12-29T12:39:21;31.90;;;5.60;;
22614;SDS011;11474;50.790;0.298;2023-12-29T12:41:48;28.80;;;4.97;;
22614;SDS011;11474;50.790;0.298;2023-12-29T12:44:14;34.38;;;5.50;;
22614;SDS011;11474;50.790;0.298;2023-12-29T12:49:13;33.28;;;5.95;;
22614;SDS011;11474;50.790;0.298;2023-12-29T12:51:40;29.90;;;4.82;;
22614;SDS011;11474;50.790;0.298;2023-12-29T12:54:07;43.35;;;5.40;;
22614;SDS011;11474;50.790;0.298;2023-12-29T12:56:33;31.17;;;6.25;;
22614;SDS011;11474;50.790;0.298;2023-12-29T12:59:01;26.45;;;5.13;;
22614;SDS011;11474;50.790;0.298;2023-12-29T13:01:28;32.03;;;5.60;;
22614;SDS011;11474;50.790;0.298;2023-12-29T13:03:54;37.67;;;5.70;;
22614;SDS011;11474;50.790;0.298;2023-12-29T13:06:21;34.53;;;5.30;;
22614;SDS011;11474;50.790;0.298;2023-12-29T13:08:48;34.95;;;5.40;;
22614;SDS011;11474;50.790;0.298;2023-12-29T13:11:18;35.13;;;5.45;;
22614;SDS011;11474;50.790;0.298;2023-12-29T13:13:47;36.47;;;5.73;;
22614;SDS011;11474;50.790;0.298;2023-12-29T13:16:13;33.17;;;5.82;;
22614;SDS011;11474;50.790;0.298;2023-12-29T13:18:39;27.10;;;5.13;;
22614;SDS011;11474;50.790;0.298;2023-12-29T13:21:05;30.27;;;5.93;;
22614;SDS011;11474;50.790;0.298;2023-12-29T13:23:32;31.88;;;5.75;;
22614;SDS011;11474;50.790;0.298;2023-12-29T13:26:05;35.15;;;6.32;;
22614;SDS011;11474;50.790;0.298;2023-12-29T13:28:32;26.95;;;4.63;;
22614;SDS011;11474;50.790;0.298;2023-12-29T13:30:59;29.07;;;5.07;;
22614;SDS011;11474;50.790;0.298;2023-12-29T13:36:05;42.80;;;5.85;;
22614;SDS011;11474;50.790;0.298;2023-12-29T13:38:37;33.30;;;5.72;;
22614;SDS011;11474;50.790;0.298;2023-12-29T13:41:05;30.00;;;4.77;;
22614;SDS011;11474;50.790;0.298;2023-12-29T13:43:33;32.80;;;5.97;;
22614;SDS011;11474;50.790;0.298;2023-12-29T13:46:00;31.87;;;5.63;;
22614;SDS011;11474;50.790;0.298;2023-12-29T13:48:27;34.35;;;5.57;;
22614;SDS011;11474;50.790;0.298;2023-12-29T13:50:53;31.77;;;5.47;;
22614;SDS011;11474;50.790;0.298;2023-12-29T13:53:20;34.33;;;5.25;;
22614;SDS011;11474;50.790;0.298;2023-12-29T13:55:47;27.15;;;6.00;;
22614;SDS011;11474;50.790;0.298;2023-12-29T13:58:14;31.20;;;5.30;;
22614;SDS011;11474;50.790;0.298;2023-12-29T14:00:41;32.83;;;5.25;;
22614;SDS011;11474;50.790;0.298;2023-12-29T14:03:23;26.92;;;4.10;;
22614;SDS011;11474;50.790;0.298;2023-12-29T14:05:55;25.57;;;5.10;;
22614;SDS011;11474;50.790;0.298;2023-12-29T14:08:40;26.20;;;5.65;;
22614;SDS011;11474;50.790;0.298;2023-12-29T14:11:07;28.20;;;4.78;;
22614;SDS011;11474;50.790;0.298;2023-12-29T14:13:42;27.93;;;5.47;;
22614;SDS011;11474;50.790;0.298;2023-12-29T14:16:08;37.95;;;6.10;;
22614;SDS011;11474;50.790;0.298;2023-12-29T14:21:19;29.13;;;5.25;;
22614;SDS011;11474;50.790;0.298;2023-12-29T14:23:56;25.20;;;4.80;;
22614;SDS011;11474;50.790;0.298;2023-12-29T14:26:23;33.38;;;4.95;;
22614;SDS011;11474;50.790;0.298;2023-12-29T14:28:59;32.25;;;5.10;;
22614;SDS011;11474;50.790;0.298;2023-12-29T14:31:25;27.25;;;4.88;;
22614;SDS011;11474;50.790;0.298;2023-12-29T14:33:51;27.27;;;5.00;;
22614;SDS011;11474;50.790;0.298;2023-12-29T14:36:18;29.80;;;5.30;;
22614;SDS011;11474;50.790;0.298;2023-12-29T14:38:44;25.70;;;4.30;;
22614;SDS011;11474;50.790;0.298;2023-12-29T14:41:10;34.22;;;5.43;;
22614;SDS011;11474;50.790;0.298;2023-12-29T14:43:36;24.98;;;4.93;;
22614;SDS011;11474;50.790;0.298;2023-12-29T14:46:02;26.23;;;4.88;;
22614;SDS011;11474;50.790;0.298;2023-12-29T14:48:28;26.52;;;4.50;;
22614;SDS011;11474;50.790;0.298;2023-12-29T14:50:54;26.63;;;4.70;;
22614;SDS011;11474;50.790;0.298;2023-12-29T14:53:22;26.35;;;5.07;;
22614;SDS011;11474;50.790;0.298;2023-12-29T14:55:50;32.00;;;4.68;;